Jordan, MN (55352)

12:51 AM CDT on August 28, 2016 (GMT -0500)
Carver Bluffs, Carver Minnesota | | Change Station
Active Advisory: Dense Fog Advisory

Elev 837 ft 44.75 °N, 93.65 °W | Updated 5 minutes ago

Scattered Clouds
Scattered Clouds
56.5 °F
Feels Like 56.5 °F
N
0.0
Wind Variable Wind from South

Today
High -- | Low -- °F
--% Chance of Precip.
Yesterday
High -- | Low -- °F
Precip. -- in
Pressure 30.07 in
Visibility 7.0 miles
Clouds Scattered Clouds 2400 ft
Dew Point 56 °F
Humidity 99%
Rainfall 0.00 in
Snow Depth Not available.
6:32 AM 7:57 PM
Waning Crescent, 18% visible
SPECI KFCM 280539Z AUTO 12003KT 7SM SCT024 17/16 A3007 RMK AO2 T01720156
Pressure 30.07 in
Visibility 7.0 miles
Clouds Scattered Clouds 2400 ft
Dew Point 56 °F
Humidity 99%
Rainfall 0.00 in
Snow Depth Not available.
6:32 AM 7:57 PM
Waning Crescent, 18% visible
SPECI KFCM 280539Z AUTO 12003KT 7SM SCT024 17/16 A3007 RMK AO2 T01720156

10-Day Weather Forecast

Almanac

Astronomy

Aug. 28, 2016 Rise Set
Actual Time
Civil Twilight
Nautical Twilight
Astronomical Twilight
Moon
Length of Visible Light
Length of Day
Tomorrow will be .
, % of the Moon is Illuminated

Today's Extremes

State Highs State Lows

Community

WunderPhotos

Upload Photos

1,935,533 photos uploaded!

WunderBlog® & News

Nearby

Air Quality

  Air Quality AQ Index Pollutant
Not available.

Snow Depth

Station Depth Elevation

Earthquake Activity

City Distance Mag. Time & Date
Minimum magnitude displayed is 2.5.

Coastal Water Temperatures

Place Temperature

Stations

Nearby Weather Stations

Station Location Temp. Windchill Dew Point Humidity Wind Precip. Elev Updated Type
                   

Watches & Warnings

Dense Fog Advisory
Issued: 12:23 AM CDT Aug. 28, 2016 – National Weather Service

... Dense fog advisory remains in effect until 8 am CDT this
morning...

* visibility... less than a quarter mile.

* Impacts... it may be difficult to see the Road if you are out
driving tonight or early tomorrow morning.

Precautionary/preparedness actions...

A dense fog advisory means visibilities will frequently be
reduced to less than one quarter mile. If driving... slow down...
use your headlights... and leave plenty of distance ahead of you.